Time,TemperatureF,DewpointF,PressureIn,WindDirection,WindDirectionDegrees,WindSpeedMPH,WindSpeedGustMPH,Humidity,HourlyPrecipIn,Conditions,Clouds,dailyrainin,SoftwareType,DateUTC
2013-12-07 00:01:00,68.9,67.6,30.09,SW,232,2.0,7.0,96,0.00,,,0.00,meteohub,2013-12-07 05:01:00,
2013-12-07 00:03:00,69.1,67.8,30.09,West,278,4.0,7.0,96,0.00,,,0.00,meteohub,2013-12-07 05:03:00,
2013-12-07 00:08:00,69.1,67.8,30.09,SW,229,1.0,7.0,96,0.00,,,0.00,meteohub,2013-12-07 05:08:00,
2013-12-07 00:13:00,69.3,68.0,30.09,SSW,196,2.0,6.0,96,0.00,,,0.00,meteohub,2013-12-07 05:13:00,
2013-12-07 00:17:00,69.3,68.0,30.08,SW,229,0.0,6.0,96,0.00,,,0.00,meteohub,2013-12-07 05:17:00,
2013-12-07 00:22:00,69.4,68.2,30.09,SSW,202,2.0,6.0,96,0.00,,,0.00,meteohub,2013-12-07 05:22:00,
2013-12-07 00:27:00,69.4,68.2,30.08,WSW,256,4.0,6.0,96,0.00,,,0.00,meteohub,2013-12-07 05:27:00,
2013-12-07 00:32:00,69.6,68.4,30.08,WSW,257,3.0,6.0,96,0.00,,,0.00,meteohub,2013-12-07 05:32:00,
2013-12-07 00:37:00,69.8,68.5,30.08,SSW,205,5.0,7.0,96,0.00,,,0.00,meteohub,2013-12-07 05:37:00,
2013-12-07 00:42:00,70.0,68.7,30.07,SSW,213,8.0,11.0,96,0.00,,,0.00,meteohub,2013-12-07 05:42:00,
2013-12-07 00:47:00,70.2,68.7,30.07,SW,231,3.0,11.0,95,0.00,,,0.00,meteohub,2013-12-07 05:47:00,
2013-12-07 00:52:00,70.2,68.7,30.07,WSW,240,5.0,11.0,95,0.00,,,0.00,meteohub,2013-12-07 05:52:00,
2013-12-07 00:57:00,70.3,68.9,30.07,West,262,5.0,11.0,95,0.00,,,0.00,meteohub,2013-12-07 05:57:00,
2013-12-07 01:02:00,70.3,68.9,30.07,West,277,1.0,11.0,95,0.00,,,0.00,meteohub,2013-12-07 06:02:00,
2013-12-07 01:07:00,70.3,68.9,30.07,West,271,3.0,9.0,95,0.00,,,0.00,meteohub,2013-12-07 06:07:00,
2013-12-07 01:12:00,70.3,68.9,30.07,SSW,211,2.0,9.0,95,0.00,,,0.00,meteohub,2013-12-07 06:12:00,
2013-12-07 01:17:00,70.3,68.9,30.07,WSW,239,3.0,8.0,95,0.00,,,0.00,meteohub,2013-12-07 06:17:00,
2013-12-07 01:22:00,70.5,69.1,30.07,SW,225,2.0,7.0,95,0.00,,,0.00,meteohub,2013-12-07 06:22:00,
2013-12-07 01:27:00,70.5,69.1,30.07,West,259,2.0,10.0,95,0.00,,,0.00,meteohub,2013-12-07 06:27:00,
2013-12-07 01:32:00,70.7,69.3,30.07,SW,215,9.0,10.0,95,0.00,,,0.00,meteohub,2013-12-07 06:32:00,
2013-12-07 01:37:00,70.9,69.4,30.07,SSW,196,3.0,10.0,95,0.00,,,0.00,meteohub,2013-12-07 06:37:00,
2013-12-07 01:42:00,70.9,69.1,30.07,SSW,211,3.0,10.0,94,0.00,,,0.00,meteohub,2013-12-07 06:42:00,
2013-12-07 01:47:00,70.9,69.1,30.06,SW,221,11.0,11.0,94,0.00,,,0.00,meteohub,2013-12-07 06:47:00,
2013-12-07 01:52:00,71.1,69.3,30.07,WSW,248,7.0,14.0,94,0.00,,,0.00,meteohub,2013-12-07 06:52:00,
2013-12-07 01:57:00,71.1,69.3,30.06,WSW,249,7.0,14.0,94,0.00,,,0.00,meteohub,2013-12-07 06:57:00,
2013-12-07 02:02:00,71.1,69.3,30.06,SSW,211,4.0,14.0,94,0.00,,,0.00,meteohub,2013-12-07 07:02:00,
2013-12-07 02:07:00,71.1,69.3,30.06,SW,227,6.0,11.0,94,0.00,,,0.00,meteohub,2013-12-07 07:07:00,
2013-12-07 02:12:00,71.1,68.9,30.06,WSW,241,5.0,11.0,93,0.00,,,0.00,meteohub,2013-12-07 07:12:00,
2013-12-07 02:17:00,71.1,68.9,30.06,WSW,251,4.0,14.0,93,0.00,,,0.00,meteohub,2013-12-07 07:17:00,
2013-12-07 02:22:00,71.1,68.9,30.06,WSW,256,4.0,16.0,93,0.00,,,0.00,meteohub,2013-12-07 07:22:00,
2013-12-07 02:27:00,71.1,68.9,30.06,SW,225,4.0,16.0,93,0.00,,,0.00,meteohub,2013-12-07 07:27:00,
2013-12-07 02:32:00,71.1,68.9,30.06,SW,219,10.0,16.0,93,0.00,,,0.00,meteohub,2013-12-07 07:32:00,
2013-12-07 02:37:00,71.1,68.9,30.06,SSW,195,5.0,13.0,93,0.00,,,0.00,meteohub,2013-12-07 07:37:00,
2013-12-07 02:42:00,71.1,68.9,30.06,West,259,3.0,13.0,93,0.00,,,0.00,meteohub,2013-12-07 07:42:00,
2013-12-07 02:47:00,70.9,68.7,30.07,WSW,243,5.0,13.0,93,0.00,,,0.00,meteohub,2013-12-07 07:47:00,
2013-12-07 02:52:00,70.9,68.7,30.07,SSW,205,1.0,11.0,93,0.00,,,0.00,meteohub,2013-12-07 07:52:00,
2013-12-07 02:57:00,70.9,68.7,30.07,West,268,6.0,11.0,93,0.00,,,0.00,meteohub,2013-12-07 07:57:00,
2013-12-07 03:02:00,70.9,68.7,30.07,West,266,8.0,11.0,93,0.00,,,0.00,meteohub,2013-12-07 08:02:00,
2013-12-07 03:07:00,70.9,68.7,30.07,SSW,205,6.0,12.0,93,0.00,,,0.00,meteohub,2013-12-07 08:07:00,
2013-12-07 03:12:00,70.7,68.5,30.07,SSW,202,3.0,12.0,93,0.00,,,0.00,meteohub,2013-12-07 08:12:00,
2013-12-07 03:17:00,70.5,68.4,30.07,WSW,237,2.0,14.0,93,0.00,,,0.00,meteohub,2013-12-07 08:17:00,
2013-12-07 03:22:00,70.5,68.4,30.07,SW,215,7.0,15.0,93,0.00,,,0.00,meteohub,2013-12-07 08:22:00,
2013-12-07 03:27:00,70.5,68.4,30.07,West,280,3.0,15.0,93,0.00,,,0.00,meteohub,2013-12-07 08:27:00,
2013-12-07 03:32:00,70.5,68.4,30.07,WSW,238,2.0,15.0,93,0.00,,,0.00,meteohub,2013-12-07 08:32:00,
2013-12-07 03:37:00,70.3,68.2,30.07,WSW,246,6.0,14.0,93,0.00,,,0.00,meteohub,2013-12-07 08:37:00,
2013-12-07 03:42:00,70.3,68.2,30.07,West,261,4.0,14.0,93,0.00,,,0.00,meteohub,2013-12-07 08:42:00,
2013-12-07 03:47:00,70.2,68.0,30.07,WSW,243,6.0,15.0,93,0.00,,,0.00,meteohub,2013-12-07 08:47:00,
2013-12-07 03:52:00,70.2,68.0,30.07,SSW,196,5.0,15.0,93,0.00,,,0.00,meteohub,2013-12-07 08:52:00,
2013-12-07 03:57:00,70.0,67.8,30.07,WSW,240,2.0,15.0,93,0.00,,,0.00,meteohub,2013-12-07 08:57:00,
2013-12-07 04:02:00,70.0,67.8,30.06,WSW,238,7.0,11.0,93,0.00,,,0.00,meteohub,2013-12-07 09:02:00,
2013-12-07 04:07:00,69.8,67.3,30.07,West,274,7.0,11.0,92,0.00,,,0.00,meteohub,2013-12-07 09:07:00,
2013-12-07 04:12:00,69.8,67.3,30.07,SW,228,9.0,11.0,92,0.00,,,0.00,meteohub,2013-12-07 09:12:00,
2013-12-07 04:17:00,69.8,67.3,30.07,SSW,205,4.0,11.0,92,0.00,,,0.00,meteohub,2013-12-07 09:17:00,
2013-12-07 04:22:00,69.6,67.3,30.07,West,277,4.0,11.0,92,0.00,,,0.00,meteohub,2013-12-07 09:22:00,
2013-12-07 04:27:00,69.6,67.3,30.07,West,265,5.0,11.0,92,0.00,,,0.00,meteohub,2013-12-07 09:27:00,
2013-12-07 04:32:00,69.6,67.3,30.07,SW,231,7.0,11.0,92,0.00,,,0.00,meteohub,2013-12-07 09:32:00,
2013-12-07 04:37:00,69.6,67.3,30.07,West,259,6.0,11.0,92,0.00,,,0.00,meteohub,2013-12-07 09:37:00,
2013-12-07 04:42:00,69.4,67.1,30.07,SW,232,3.0,11.0,92,0.00,,,0.00,meteohub,2013-12-07 09:42:00,
2013-12-07 04:47:00,69.6,67.3,30.07,WSW,251,5.0,11.0,92,0.00,,,0.00,meteohub,2013-12-07 09:47:00,
2013-12-07 04:52:00,69.6,66.9,30.07,West,264,2.0,11.0,91,0.00,,,0.00,meteohub,2013-12-07 09:52:00,
2013-12-07 04:57:00,69.4,66.7,30.07,West,261,2.0,11.0,91,0.00,,,0.00,meteohub,2013-12-07 09:57:00,
2013-12-07 05:02:00,69.4,66.7,30.07,SSW,200,6.0,10.0,91,0.00,,,0.00,meteohub,2013-12-07 10:02:00,
2013-12-07 05:07:00,69.4,66.7,30.07,SSW,205,4.0,10.0,91,0.00,,,0.00,meteohub,2013-12-07 10:07:00,
2013-12-07 05:12:00,69.3,66.6,30.07,West,269,5.0,10.0,91,0.00,,,0.00,meteohub,2013-12-07 10:12:00,
2013-12-07 05:17:00,69.3,66.6,30.07,West,271,3.0,10.0,91,0.00,,,0.00,meteohub,2013-12-07 10:17:00,
2013-12-07 05:22:00,69.3,66.6,30.07,WSW,240,3.0,8.0,91,0.00,,,0.00,meteohub,2013-12-07 10:22:00,
2013-12-07 05:27:00,69.3,66.6,30.07,SSW,205,6.0,8.0,91,0.00,,,0.00,meteohub,2013-12-07 10:27:00,
2013-12-07 05:32:00,69.3,66.2,30.07,WSW,238,5.0,7.0,90,0.00,,,0.00,meteohub,2013-12-07 10:32:00,
2013-12-07 05:37:00,69.3,66.2,30.07,West,272,8.0,9.0,90,0.00,,,0.00,meteohub,2013-12-07 10:37:00,
2013-12-07 05:42:00,69.3,66.2,30.07,West,267,2.0,9.0,90,0.00,,,0.00,meteohub,2013-12-07 10:42:00,
2013-12-07 05:47:00,69.3,66.2,30.07,SW,233,3.0,9.0,90,0.00,,,0.00,meteohub,2013-12-07 10:47:00,
2013-12-07 05:52:00,69.3,66.2,30.08,SW,225,2.0,10.0,90,0.00,,,0.00,meteohub,2013-12-07 10:52:00,
2013-12-07 05:57:00,69.1,66.0,30.08,SW,214,3.0,10.0,90,0.00,,,0.00,meteohub,2013-12-07 10:57:00,
2013-12-07 06:02:00,69.3,65.8,30.08,WSW,246,5.0,10.0,89,0.00,,,0.00,meteohub,2013-12-07 11:02:00,
2013-12-07 06:07:00,69.3,65.8,30.08,SW,228,3.0,10.0,89,0.00,,,0.00,meteohub,2013-12-07 11:07:00,
2013-12-07 06:12:00,69.3,65.8,30.08,West,275,4.0,9.0,89,0.00,,,0.00,meteohub,2013-12-07 11:12:00,
2013-12-07 06:17:00,69.3,65.8,30.08,West,277,3.0,9.0,89,0.00,,,0.00,meteohub,2013-12-07 11:17:00,
2013-12-07 06:22:00,69.1,65.7,30.08,SW,234,6.0,9.0,89,0.00,,,0.00,meteohub,2013-12-07 11:22:00,
2013-12-07 06:27:00,69.1,65.7,30.08,WSW,239,4.0,9.0,89,0.00,,,0.00,meteohub,2013-12-07 11:27:00,
2013-12-07 06:32:00,69.3,65.5,30.08,WSW,246,7.0,9.0,88,0.00,,,0.00,meteohub,2013-12-07 11:32:00,
2013-12-07 06:37:00,69.3,65.5,30.08,SW,228,3.0,11.0,88,0.00,,,0.00,meteohub,2013-12-07 11:37:00,
2013-12-07 06:42:00,69.3,65.3,30.08,SW,231,5.0,11.0,87,0.00,,,0.00,meteohub,2013-12-07 11:42:00,
2013-12-07 06:47:00,69.3,65.3,30.08,West,266,6.0,11.0,87,0.00,,,0.00,meteohub,2013-12-07 11:47:00,
2013-12-07 06:52:00,69.4,65.5,30.08,SSW,209,4.0,11.0,87,0.00,,,0.00,meteohub,2013-12-07 11:52:00,
2013-12-07 06:57:00,69.4,65.5,30.08,WSW,254,4.0,12.0,87,0.00,,,0.00,meteohub,2013-12-07 11:57:00,
2013-12-07 07:02:00,69.4,65.1,30.09,SSW,205,2.0,12.0,86,0.00,,,0.00,meteohub,2013-12-07 12:02:00,
2013-12-07 07:07:00,69.4,65.1,30.09,WSW,251,4.0,13.0,86,0.00,,,0.00,meteohub,2013-12-07 12:07:00,
2013-12-07 07:12:00,69.4,65.1,30.09,WNW,286,7.0,13.0,86,0.00,,,0.00,meteohub,2013-12-07 12:12:00,
2013-12-07 07:17:00,69.4,65.1,30.10,West,265,3.0,13.0,86,0.00,,,0.00,meteohub,2013-12-07 12:17:00,
2013-12-07 07:22:00,69.3,64.9,30.10,WSW,246,6.0,11.0,86,0.00,,,0.00,meteohub,2013-12-07 12:22:00,
2013-12-07 07:27:00,69.3,64.9,30.10,West,263,5.0,11.0,86,0.00,,,0.00,meteohub,2013-12-07 12:27:00,
2013-12-07 07:32:00,69.3,64.9,30.10,WSW,242,2.0,10.0,86,0.00,,,0.00,meteohub,2013-12-07 12:32:00,
2013-12-07 07:37:00,69.3,64.9,30.11,SW,215,3.0,12.0,86,0.00,,,0.00,meteohub,2013-12-07 12:37:00,
2013-12-07 07:42:00,69.3,65.3,30.11,SW,219,5.0,12.0,87,0.00,,,0.00,meteohub,2013-12-07 12:42:00,
2013-12-07 07:48:00,69.3,65.3,30.11,SSW,202,2.0,12.0,87,0.00,,,0.00,meteohub,2013-12-07 12:48:00,
2013-12-07 07:53:00,69.4,65.5,30.11,SW,215,2.0,10.0,87,0.00,,,0.00,meteohub,2013-12-07 12:53:00,
2013-12-07 07:58:00,69.4,65.1,30.11,West,260,3.0,10.0,86,0.00,,,0.00,meteohub,2013-12-07 12:58:00,
2013-12-07 08:03:00,69.6,65.3,30.12,WSW,256,7.0,10.0,86,0.00,,,0.00,meteohub,2013-12-07 13:03:00,
2013-12-07 08:08:00,69.6,65.3,30.12,West,261,5.0,10.0,86,0.00,,,0.00,meteohub,2013-12-07 13:08:00,
2013-12-07 08:13:00,69.6,65.3,30.12,WSW,237,4.0,10.0,86,0.00,,,0.00,meteohub,2013-12-07 13:13:00,
2013-12-07 08:18:00,69.6,65.3,30.12,SW,223,6.0,10.0,86,0.00,,,0.00,meteohub,2013-12-07 13:18:00,
2013-12-07 08:23:00,69.6,65.3,30.12,SW,223,4.0,9.0,86,0.00,,,0.00,meteohub,2013-12-07 13:23:00,
2013-12-07 08:28:00,69.6,65.7,30.12,WSW,255,5.0,9.0,87,0.00,,,0.00,meteohub,2013-12-07 13:28:00,
2013-12-07 08:33:00,69.6,65.7,30.12,WSW,257,6.0,9.0,87,0.00,,,0.00,meteohub,2013-12-07 13:33:00,
2013-12-07 08:38:00,69.6,65.7,30.13,West,271,3.0,9.0,87,0.00,,,0.00,meteohub,2013-12-07 13:38:00,
2013-12-07 08:43:00,69.6,65.7,30.13,West,267,2.0,9.0,87,0.00,,,0.00,meteohub,2013-12-07 13:43:00,
2013-12-07 08:48:00,70.0,66.0,30.13,SW,222,3.0,9.0,87,0.00,,,0.00,meteohub,2013-12-07 13:48:00,
2013-12-07 08:53:00,70.2,65.8,30.13,WSW,242,3.0,8.0,86,0.00,,,0.00,meteohub,2013-12-07 13:53:00,
2013-12-07 08:58:00,70.2,66.0,30.13,WSW,247,2.0,8.0,87,0.00,,,0.00,meteohub,2013-12-07 13:58:00,
2013-12-07 09:03:00,70.3,66.0,30.13,West,267,4.0,8.0,86,0.00,,,0.00,meteohub,2013-12-07 14:03:00,
2013-12-07 09:08:00,70.3,66.2,30.14,West,271,5.0,8.0,87,0.00,,,0.00,meteohub,2013-12-07 14:08:00,
2013-12-07 09:13:00,70.3,66.2,30.14,West,264,4.0,8.0,87,0.00,,,0.00,meteohub,2013-12-07 14:13:00,
2013-12-07 09:18:00,70.3,66.0,30.14,WSW,258,5.0,10.0,86,0.00,,,0.00,meteohub,2013-12-07 14:18:00,
2013-12-07 09:23:00,70.3,66.2,30.14,WSW,246,6.0,10.0,87,0.00,,,0.00,meteohub,2013-12-07 14:23:00,
2013-12-07 09:28:00,70.5,66.2,30.14,West,279,4.0,10.0,86,0.00,,,0.00,meteohub,2013-12-07 14:28:00,
2013-12-07 09:33:00,70.7,66.4,30.14,West,275,7.0,10.0,86,0.00,,,0.00,meteohub,2013-12-07 14:33:00,
2013-12-07 09:38:00,70.7,66.4,30.15,West,276,4.0,10.0,86,0.00,,,0.00,meteohub,2013-12-07 14:38:00,
2013-12-07 09:43:00,71.1,66.7,30.15,West,276,3.0,11.0,86,0.00,,,0.00,meteohub,2013-12-07 14:43:00,
2013-12-07 09:48:00,71.2,66.9,30.15,West,275,6.0,11.0,86,0.00,,,0.00,meteohub,2013-12-07 14:48:00,
2013-12-07 09:53:00,71.2,66.9,30.15,West,273,7.0,13.0,86,0.00,,,0.00,meteohub,2013-12-07 14:53:00,
2013-12-07 09:58:00,71.2,66.9,30.16,WSW,256,0.0,13.0,86,0.00,,,0.00,meteohub,2013-12-07 14:58:00,
2013-12-07 10:03:00,71.1,66.7,30.16,West,275,2.0,13.0,86,0.00,,,0.00,meteohub,2013-12-07 15:03:00,
2013-12-07 10:08:00,70.9,66.7,30.16,WNW,300,5.0,13.0,87,0.00,,,0.00,meteohub,2013-12-07 15:08:00,
2013-12-07 10:13:00,70.5,66.4,30.16,West,260,4.0,10.0,87,0.00,,,0.00,meteohub,2013-12-07 15:13:00,
2013-12-07 10:18:00,70.2,65.8,30.17,West,277,2.0,10.0,86,0.00,,,0.00,meteohub,2013-12-07 15:18:00,
2013-12-07 10:23:00,66.7,61.0,30.18,NW,319,2.0,9.0,82,0.00,,,0.00,meteohub,2013-12-07 15:23:00,
2013-12-07 10:28:00,64.2,59.4,30.18,NW,315,0.0,9.0,84,0.00,,,0.00,meteohub,2013-12-07 15:28:00,
2013-12-07 10:33:00,62.6,58.3,30.18,NW,324,0.0,7.0,86,0.00,,,0.00,meteohub,2013-12-07 15:33:00,
2013-12-07 10:38:00,61.2,57.0,30.18,NW,319,0.0,7.0,86,0.00,,,0.00,meteohub,2013-12-07 15:38:00,
2013-12-07 10:43:00,59.7,55.8,30.19,NNW,343,2.0,4.0,87,0.00,,,0.00,meteohub,2013-12-07 15:43:00,
2013-12-07 10:48:00,58.3,54.5,30.20,NE,36,4.0,4.0,87,0.00,,,0.00,meteohub,2013-12-07 15:48:00,
2013-12-07 10:53:00,56.8,53.6,30.20,NE,42,2.0,7.0,89,0.01,,,0.00,meteohub,2013-12-07 15:53:00,
2013-12-07 10:58:00,55.8,52.9,30.21,NNW,340,1.0,7.0,90,0.01,,,0.00,meteohub,2013-12-07 15:58:00,
2013-12-07 11:03:00,54.9,52.3,30.21,NNW,335,2.0,7.0,91,0.03,,,0.03,meteohub,2013-12-07 16:03:00,
2013-12-07 11:08:00,54.1,51.8,30.21,NNW,343,0.0,7.0,92,0.03,,,0.03,meteohub,2013-12-07 16:08:00,
2013-12-07 11:13:00,53.8,51.8,30.21,NNW,348,0.0,5.0,93,0.04,,,0.04,meteohub,2013-12-07 16:13:00,
2013-12-07 11:19:00,53.2,51.3,30.21,North,0,0.0,5.0,93,0.04,,,0.04,meteohub,2013-12-07 16:19:00,
2013-12-07 11:24:00,53.1,51.4,30.21,North,0,0.0,5.0,94,0.04,,,0.04,meteohub,2013-12-07 16:24:00,
2013-12-07 11:29:00,52.5,50.5,30.22,NNW,332,2.0,5.0,93,0.04,,,0.04,meteohub,2013-12-07 16:29:00,
2013-12-07 11:34:00,52.0,50.0,30.22,NNW,339,2.0,5.0,93,0.04,,,0.04,meteohub,2013-12-07 16:34:00,
2013-12-07 11:39:00,51.4,49.8,30.22,North,5,3.0,5.0,94,0.04,,,0.04,meteohub,2013-12-07 16:39:00,
2013-12-07 11:44:00,51.1,49.1,30.23,ENE,76,3.0,5.0,93,0.04,,,0.04,meteohub,2013-12-07 16:44:00,
2013-12-07 11:49:00,50.5,48.9,30.23,North,355,3.0,5.0,94,0.04,,,0.04,meteohub,2013-12-07 16:49:00,
2013-12-07 11:54:00,50.4,48.7,30.22,NNE,30,0.0,6.0,94,0.02,,,0.04,meteohub,2013-12-07 16:54:00,
2013-12-07 11:59:00,50.4,48.9,30.22,ESE,120,0.0,6.0,95,0.02,,,0.04,meteohub,2013-12-07 16:59:00,
2013-12-07 12:04:00,50.5,49.1,30.22,North,355,2.0,5.0,95,0.01,,,0.04,meteohub,2013-12-07 17:04:00,
2013-12-07 12:09:00,50.5,49.1,30.22,North,5,0.0,5.0,95,0.01,,,0.04,meteohub,2013-12-07 17:09:00,
2013-12-07 12:14:00,50.4,48.9,30.23,NE,51,0.0,5.0,95,0.00,,,0.04,meteohub,2013-12-07 17:14:00,
2013-12-07 12:19:00,50.4,48.9,30.22,NE,51,0.0,5.0,95,0.00,,,0.04,meteohub,2013-12-07 17:19:00,
2013-12-07 12:24:00,50.4,48.9,30.22,East,85,1.0,7.0,95,0.00,,,0.04,meteohub,2013-12-07 17:24:00,
2013-12-07 12:29:00,50.2,48.7,30.22,NE,49,0.0,7.0,95,0.00,,,0.04,meteohub,2013-12-07 17:29:00,
2013-12-07 12:34:00,50.0,48.6,30.23,SE,127,5.0,7.0,95,0.00,,,0.04,meteohub,2013-12-07 17:34:00,
2013-12-07 12:39:00,50.0,48.6,30.22,North,355,0.0,7.0,95,0.00,,,0.04,meteohub,2013-12-07 17:39:00,
2013-12-07 12:44:00,50.2,48.7,30.22,North,355,1.0,6.0,95,0.00,,,0.04,meteohub,2013-12-07 17:44:00,
2013-12-07 12:49:00,49.8,48.4,30.22,ENE,59,0.0,8.0,95,0.00,,,0.04,meteohub,2013-12-07 17:49:00,
2013-12-07 12:54:00,49.6,48.0,30.22,NE,53,1.0,12.0,94,0.00,,,0.04,meteohub,2013-12-07 17:54:00,
2013-12-07 12:59:00,49.6,48.2,30.22,SSE,153,2.0,12.0,95,0.00,,,0.04,meteohub,2013-12-07 17:59:00,
2013-12-07 13:04:00,49.5,48.0,30.21,ENE,67,0.0,12.0,95,0.00,,,0.04,meteohub,2013-12-07 18:04:00,
2013-12-07 13:09:00,49.5,48.0,30.22,North,349,2.0,5.0,95,0.00,,,0.04,meteohub,2013-12-07 18:09:00,
2013-12-07 13:14:00,49.5,48.0,30.22,North,11,0.0,5.0,95,0.00,,,0.04,meteohub,2013-12-07 18:14:00,
2013-12-07 13:19:00,49.3,47.7,30.22,NE,37,1.0,7.0,94,0.00,,,0.04,meteohub,2013-12-07 18:19:00,
2013-12-07 13:24:00,49.3,47.8,30.21,ENE,63,0.0,7.0,95,0.00,,,0.04,meteohub,2013-12-07 18:24:00,
2013-12-07 13:29:00,49.3,47.8,30.22,ENE,62,0.0,7.0,95,0.00,,,0.04,meteohub,2013-12-07 18:29:00,
2013-12-07 13:34:00,49.3,47.8,30.21,NNE,15,0.0,6.0,95,0.00,,,0.04,meteohub,2013-12-07 18:34:00,
2013-12-07 13:39:00,49.1,47.7,30.21,NE,51,1.0,5.0,95,0.00,,,0.04,meteohub,2013-12-07 18:39:00,
2013-12-07 13:44:00,48.9,47.5,30.22,ENE,57,0.0,5.0,95,0.00,,,0.04,meteohub,2013-12-07 18:44:00,
2013-12-07 13:49:00,48.7,47.3,30.22,East,82,0.0,5.0,95,0.00,,,0.04,meteohub,2013-12-07 18:49:00,
2013-12-07 13:54:00,48.7,47.3,30.22,East,101,0.0,11.0,95,0.00,,,0.04,meteohub,2013-12-07 18:54:00,
2013-12-07 13:59:00,48.7,47.3,30.22,WNW,289,1.0,11.0,95,0.00,,,0.04,meteohub,2013-12-07 18:59:00,
2013-12-07 14:06:00,48.6,47.1,30.23,North,5,2.0,5.0,95,0.00,,,0.04,meteohub,2013-12-07 19:06:00,
2013-12-07 14:11:00,48.6,47.1,30.22,North,5,0.0,5.0,95,0.00,,,0.04,meteohub,2013-12-07 19:11:00,
2013-12-07 14:16:00,48.6,47.1,30.23,North,355,0.0,4.0,95,0.00,,,0.04,meteohub,2013-12-07 19:16:00,
2013-12-07 14:21:00,48.6,47.1,30.23,North,355,0.0,4.0,95,0.00,,,0.04,meteohub,2013-12-07 19:21:00,
2013-12-07 14:26:00,48.6,47.1,30.23,North,355,0.0,4.0,95,0.00,,,0.04,meteohub,2013-12-07 19:26:00,
2013-12-07 14:31:00,48.6,47.1,30.23,North,355,0.0,3.0,95,0.00,,,0.04,meteohub,2013-12-07 19:31:00,
2013-12-07 14:36:00,48.6,47.1,30.24,North,355,0.0,0.0,95,0.00,,,0.04,meteohub,2013-12-07 19:36:00,
2013-12-07 14:41:00,48.4,46.9,30.24,NNW,342,2.0,3.0,95,0.00,,,0.04,meteohub,2013-12-07 19:41:00,
2013-12-07 14:46:00,48.2,46.8,30.24,NE,43,4.0,5.0,95,0.00,,,0.04,meteohub,2013-12-07 19:46:00,
2013-12-07 14:51:00,47.8,46.4,30.24,North,355,0.0,6.0,95,0.00,,,0.04,meteohub,2013-12-07 19:51:00,
2013-12-07 14:56:00,47.7,46.2,30.24,NE,38,1.0,6.0,95,0.00,,,0.04,meteohub,2013-12-07 19:56:00,
2013-12-07 15:01:00,47.5,46.0,30.24,ENE,74,0.0,6.0,95,0.00,,,0.04,meteohub,2013-12-07 20:01:00,
2013-12-07 15:06:00,47.5,46.0,30.24,NE,40,1.0,5.0,95,0.00,,,0.04,meteohub,2013-12-07 20:06:00,
2013-12-07 15:11:00,47.1,45.7,30.24,NE,35,3.0,8.0,95,0.00,,,0.04,meteohub,2013-12-07 20:11:00,
2013-12-07 15:16:00,46.9,45.5,30.25,ENE,76,0.0,8.0,95,0.00,,,0.04,meteohub,2013-12-07 20:16:00,
2013-12-07 15:21:00,46.9,45.9,30.25,ENE,73,0.0,8.0,96,0.00,,,0.04,meteohub,2013-12-07 20:21:00,
2013-12-07 15:26:00,46.9,45.9,30.25,NNE,26,0.0,8.0,96,0.00,,,0.04,meteohub,2013-12-07 20:26:00,
2013-12-07 15:31:00,46.9,45.9,30.25,NE,41,0.0,5.0,96,0.00,,,0.04,meteohub,2013-12-07 20:31:00,
2013-12-07 15:36:00,46.8,45.7,30.25,South,180,0.0,6.0,96,0.00,,,0.04,meteohub,2013-12-07 20:36:00,
2013-12-07 15:41:00,46.8,45.7,30.25,ESE,104,0.0,6.0,96,0.01,,,0.05,meteohub,2013-12-07 20:41:00,
2013-12-07 15:46:00,46.8,45.7,30.26,WNW,282,0.0,6.0,96,0.01,,,0.05,meteohub,2013-12-07 20:46:00,
2013-12-07 15:51:00,46.6,45.5,30.26,ENE,77,0.0,5.0,96,0.01,,,0.05,meteohub,2013-12-07 20:51:00,
2013-12-07 15:56:00,46.6,45.5,30.26,SSE,150,0.0,5.0,96,0.01,,,0.05,meteohub,2013-12-07 20:56:00,
2013-12-07 16:01:00,46.6,45.5,30.26,ENE,71,0.0,2.0,96,0.01,,,0.05,meteohub,2013-12-07 21:01:00,
2013-12-07 16:06:00,46.6,45.5,30.27,ENE,71,0.0,1.0,96,0.01,,,0.05,meteohub,2013-12-07 21:06:00,
2013-12-07 16:11:00,46.4,45.3,30.27,ENE,71,0.0,1.0,96,0.01,,,0.05,meteohub,2013-12-07 21:11:00,
2013-12-07 16:16:00,46.4,45.3,30.27,NW,310,1.0,3.0,96,0.01,,,0.05,meteohub,2013-12-07 21:16:00,
2013-12-07 16:21:00,46.4,45.3,30.28,ENE,67,0.0,5.0,96,0.01,,,0.05,meteohub,2013-12-07 21:21:00,
2013-12-07 16:26:00,46.2,45.1,30.27,ENE,67,2.0,5.0,96,0.01,,,0.05,meteohub,2013-12-07 21:26:00,
2013-12-07 16:31:00,46.0,45.0,30.27,East,101,0.0,5.0,96,0.01,,,0.05,meteohub,2013-12-07 21:31:00,
2013-12-07 16:36:00,46.0,45.0,30.27,ENE,77,2.0,5.0,96,0.01,,,0.05,meteohub,2013-12-07 21:36:00,
2013-12-07 16:41:00,45.7,44.6,30.27,East,91,0.0,9.0,96,0.00,,,0.05,meteohub,2013-12-07 21:41:00,
2013-12-07 16:46:00,45.7,44.6,30.27,SE,137,1.0,9.0,96,0.00,,,0.05,meteohub,2013-12-07 21:46:00,
2013-12-07 16:51:00,45.7,44.6,30.28,ESE,116,6.0,9.0,96,0.00,,,0.05,meteohub,2013-12-07 21:51:00,
2013-12-07 16:56:00,45.5,44.4,30.28,East,98,2.0,8.0,96,0.00,,,0.05,meteohub,2013-12-07 21:56:00,
2013-12-07 17:01:00,45.7,44.6,30.28,ESE,103,0.0,8.0,96,0.00,,,0.05,meteohub,2013-12-07 22:01:00,
2013-12-07 17:06:00,45.5,44.4,30.28,ESE,106,0.0,8.0,96,0.00,,,0.05,meteohub,2013-12-07 22:06:00,
2013-12-07 17:11:00,45.7,44.6,30.29,ESE,106,0.0,7.0,96,0.00,,,0.05,meteohub,2013-12-07 22:11:00,
2013-12-07 17:16:00,45.5,44.4,30.29,East,84,0.0,7.0,96,0.00,,,0.05,meteohub,2013-12-07 22:16:00,
2013-12-07 17:21:00,45.5,44.4,30.30,East,85,0.0,7.0,96,0.00,,,0.05,meteohub,2013-12-07 22:21:00,
2013-12-07 17:26:00,45.5,44.4,30.30,NE,44,2.0,6.0,96,0.00,,,0.05,meteohub,2013-12-07 22:26:00,
2013-12-07 17:31:00,45.5,44.4,30.30,NE,44,0.0,6.0,96,0.00,,,0.05,meteohub,2013-12-07 22:31:00,
2013-12-07 17:36:00,45.3,44.2,30.30,SSE,162,0.0,8.0,96,0.00,,,0.05,meteohub,2013-12-07 22:36:00,
2013-12-07 17:41:00,45.3,44.6,30.31,ENE,65,0.0,8.0,97,0.00,,,0.05,meteohub,2013-12-07 22:41:00,
2013-12-07 17:46:00,45.3,44.2,30.31,East,87,4.0,8.0,96,0.00,,,0.05,meteohub,2013-12-07 22:46:00,
2013-12-07 17:51:00,45.1,44.4,30.30,ENE,57,3.0,6.0,97,0.00,,,0.05,meteohub,2013-12-07 22:51:00,
2013-12-07 17:56:00,45.1,44.1,30.30,ENE,69,0.0,10.0,96,0.00,,,0.05,meteohub,2013-12-07 22:56:00,
2013-12-07 18:01:00,45.1,44.1,30.31,ENE,69,0.0,10.0,96,0.00,,,0.05,meteohub,2013-12-07 23:01:00,
2013-12-07 18:06:00,45.1,44.4,30.31,NE,54,4.0,10.0,97,0.00,,,0.05,meteohub,2013-12-07 23:06:00,
2013-12-07 18:11:00,45.1,44.4,30.31,East,90,0.0,6.0,97,0.00,,,0.05,meteohub,2013-12-07 23:11:00,
2013-12-07 18:16:00,45.1,44.4,30.31,NE,41,0.0,6.0,97,0.00,,,0.05,meteohub,2013-12-07 23:16:00,
2013-12-07 18:21:00,45.1,44.4,30.32,ESE,120,5.0,7.0,97,0.00,,,0.05,meteohub,2013-12-07 23:21:00,
2013-12-07 18:26:00,45.1,44.4,30.32,East,86,0.0,7.0,97,0.00,,,0.05,meteohub,2013-12-07 23:26:00,
2013-12-07 18:31:00,45.0,43.9,30.32,NE,40,0.0,8.0,96,0.00,,,0.05,meteohub,2013-12-07 23:31:00,
2013-12-07 18:36:00,45.0,43.9,30.32,NE,44,6.0,8.0,96,0.00,,,0.05,meteohub,2013-12-07 23:36:00,
2013-12-07 18:41:00,45.0,44.2,30.32,ENE,74,0.0,8.0,97,0.00,,,0.05,meteohub,2013-12-07 23:41:00,
2013-12-07 18:46:00,45.0,43.9,30.32,East,89,0.0,7.0,96,0.00,,,0.05,meteohub,2013-12-07 23:46:00,
2013-12-07 18:51:00,45.0,44.2,30.32,NE,34,1.0,7.0,97,0.00,,,0.05,meteohub,2013-12-07 23:51:00,
2013-12-07 18:56:00,44.8,44.1,30.32,NNE,16,0.0,8.0,97,0.00,,,0.05,meteohub,2013-12-07 23:56:00,
2013-12-07 19:01:00,44.8,44.1,30.33,ESE,103,0.0,8.0,97,0.00,,,0.05,meteohub,2013-12-08 00:01:00,
2013-12-07 19:06:00,45.0,44.2,30.32,East,98,2.0,8.0,97,0.00,,,0.05,meteohub,2013-12-08 00:06:00,
2013-12-07 19:11:00,44.8,44.1,30.33,NNE,33,0.0,8.0,97,0.00,,,0.05,meteohub,2013-12-08 00:11:00,
2013-12-07 19:16:00,44.8,44.1,30.33,SSE,149,4.0,8.0,97,0.00,,,0.05,meteohub,2013-12-08 00:16:00,
2013-12-07 19:21:00,44.8,44.1,30.34,East,92,0.0,8.0,97,0.00,,,0.05,meteohub,2013-12-08 00:21:00,
2013-12-07 19:26:00,44.8,44.1,30.35,WSW,251,2.0,15.0,97,0.00,,,0.05,meteohub,2013-12-08 00:26:00,
2013-12-07 19:31:00,44.6,43.9,30.34,NE,49,5.0,15.0,97,0.00,,,0.05,meteohub,2013-12-08 00:31:00,
2013-12-07 19:37:00,44.4,43.3,30.33,East,90,8.0,15.0,96,0.00,,,0.05,meteohub,2013-12-08 00:37:00,
2013-12-07 19:41:00,44.4,43.3,30.35,ENE,64,0.0,14.0,96,0.00,,,0.05,meteohub,2013-12-08 00:41:00,
2013-12-07 19:47:00,44.4,43.3,30.35,East,90,0.0,14.0,96,0.02,,,0.05,meteohub,2013-12-08 00:47:00,
2013-12-07 19:52:00,44.2,43.2,30.35,East,87,2.0,13.0,96,0.06,,,0.11,meteohub,2013-12-08 00:52:00,
2013-12-07 19:57:00,44.1,43.0,30.35,East,86,0.0,10.0,96,0.08,,,0.13,meteohub,2013-12-08 00:57:00,
2013-12-07 20:02:00,44.1,43.3,30.35,East,99,2.0,10.0,97,0.10,,,0.14,meteohub,2013-12-08 01:02:00,
2013-12-07 20:07:00,44.1,43.3,30.35,ESE,104,7.0,10.0,97,0.10,,,0.15,meteohub,2013-12-08 01:07:00,
2013-12-07 20:12:00,44.1,43.3,30.35,ENE,66,0.0,9.0,97,0.10,,,0.15,meteohub,2013-12-08 01:12:00,
2013-12-07 20:17:00,44.1,43.3,30.35,NE,53,1.0,9.0,97,0.10,,,0.15,meteohub,2013-12-08 01:17:00,
2013-12-07 20:22:00,44.1,43.3,30.35,ESE,116,0.0,9.0,97,0.10,,,0.15,meteohub,2013-12-08 01:22:00,
2013-12-07 20:27:00,44.1,43.3,30.35,ESE,116,0.0,6.0,97,0.10,,,0.15,meteohub,2013-12-08 01:27:00,
2013-12-07 20:32:00,44.1,43.3,30.35,East,94,5.0,9.0,97,0.11,,,0.15,meteohub,2013-12-08 01:32:00,
2013-12-07 20:37:00,43.9,43.2,30.35,East,91,0.0,9.0,97,0.11,,,0.16,meteohub,2013-12-08 01:37:00,
2013-12-07 20:42:00,43.9,43.2,30.36,ESE,103,0.0,9.0,97,0.11,,,0.16,meteohub,2013-12-08 01:42:00,
2013-12-07 20:47:00,43.9,43.2,30.36,East,96,0.0,8.0,97,0.11,,,0.18,meteohub,2013-12-08 01:47:00,
2013-12-07 20:52:00,43.7,43.0,30.36,SSE,150,0.0,8.0,97,0.08,,,0.19,meteohub,2013-12-08 01:52:00,
2013-12-07 20:57:00,43.7,43.0,30.36,ENE,74,0.0,8.0,97,0.06,,,0.19,meteohub,2013-12-08 01:57:00,
2013-12-07 21:02:00,43.5,42.8,30.37,NNE,18,1.0,8.0,97,0.06,,,0.20,meteohub,2013-12-08 02:02:00,
2013-12-07 21:07:00,43.5,42.8,30.36,ENE,75,0.0,6.0,97,0.06,,,0.21,meteohub,2013-12-08 02:07:00,
2013-12-07 21:12:00,43.5,42.8,30.37,NE,47,0.0,6.0,97,0.06,,,0.21,meteohub,2013-12-08 02:12:00,
2013-12-07 21:17:00,43.5,42.8,30.37,South,172,0.0,8.0,97,0.06,,,0.21,meteohub,2013-12-08 02:17:00,
2013-12-07 21:22:00,43.3,42.6,30.37,East,90,0.0,8.0,97,0.06,,,0.21,meteohub,2013-12-08 02:22:00,
2013-12-07 21:27:00,43.3,42.6,30.37,NNE,26,2.0,8.0,97,0.07,,,0.22,meteohub,2013-12-08 02:27:00,
2013-12-07 21:32:00,43.3,42.6,30.38,ENE,66,0.0,6.0,97,0.06,,,0.22,meteohub,2013-12-08 02:32:00,
2013-12-07 21:37:00,43.3,42.6,30.38,East,91,4.0,12.0,97,0.06,,,0.22,meteohub,2013-12-08 02:37:00,
2013-12-07 21:42:00,43.2,42.4,30.37,NNE,16,5.0,12.0,97,0.06,,,0.22,meteohub,2013-12-08 02:42:00,
2013-12-07 21:47:00,43.2,42.4,30.37,NE,44,0.0,12.0,97,0.04,,,0.22,meteohub,2013-12-08 02:47:00,
2013-12-07 21:52:00,43.2,42.4,30.38,SE,127,1.0,7.0,97,0.04,,,0.23,meteohub,2013-12-08 02:52:00,
2013-12-07 21:57:00,43.2,42.4,30.37,ENE,64,1.0,7.0,97,0.04,,,0.23,meteohub,2013-12-08 02:57:00,
2013-12-07 22:02:00,43.0,42.3,30.37,NE,45,4.0,9.0,97,0.02,,,0.23,meteohub,2013-12-08 03:02:00,
2013-12-07 22:07:00,43.0,42.3,30.38,ENE,57,2.0,9.0,97,0.02,,,0.23,meteohub,2013-12-08 03:07:00,
2013-12-07 22:12:00,43.0,42.3,30.38,ENE,74,2.0,9.0,97,0.02,,,0.23,meteohub,2013-12-08 03:12:00,
2013-12-07 22:17:00,43.0,42.3,30.38,ESE,104,0.0,7.0,97,0.02,,,0.23,meteohub,2013-12-08 03:17:00,
2013-12-07 22:22:00,43.2,42.4,30.38,East,98,0.0,7.0,97,0.02,,,0.23,meteohub,2013-12-08 03:22:00,
2013-12-07 22:27:00,43.2,42.4,30.38,East,100,0.0,7.0,97,0.01,,,0.23,meteohub,2013-12-08 03:27:00,
2013-12-07 22:32:00,43.2,42.4,30.38,NE,46,0.0,5.0,97,0.01,,,0.23,meteohub,2013-12-08 03:32:00,
2013-12-07 22:37:00,43.2,42.4,30.38,ENE,64,0.0,5.0,97,0.01,,,0.23,meteohub,2013-12-08 03:37:00,
2013-12-07 22:42:00,43.2,42.4,30.38,ENE,63,1.0,5.0,97,0.01,,,0.23,meteohub,2013-12-08 03:42:00,
2013-12-07 22:47:00,43.2,42.4,30.38,WNW,286,1.0,5.0,97,0.01,,,0.23,meteohub,2013-12-08 03:47:00,
2013-12-07 22:52:00,43.2,42.4,30.38,East,82,0.0,5.0,97,0.00,,,0.23,meteohub,2013-12-08 03:52:00,
2013-12-07 22:57:00,43.2,42.4,30.38,NE,34,0.0,5.0,97,0.00,,,0.23,meteohub,2013-12-08 03:57:00,
2013-12-07 23:02:00,43.2,42.4,30.38,NE,34,0.0,4.0,97,0.00,,,0.23,meteohub,2013-12-08 04:02:00,
2013-12-07 23:07:00,43.0,42.3,30.38,East,82,3.0,5.0,97,0.00,,,0.23,meteohub,2013-12-08 04:07:00,
2013-12-07 23:12:00,42.6,41.9,30.38,NNE,24,0.0,8.0,97,0.00,,,0.23,meteohub,2013-12-08 04:12:00,
2013-12-07 23:17:00,42.4,41.7,30.38,NE,55,1.0,14.0,97,0.00,,,0.23,meteohub,2013-12-08 04:17:00,
2013-12-07 23:22:00,42.1,41.4,30.38,ENE,62,2.0,14.0,97,0.00,,,0.23,meteohub,2013-12-08 04:22:00,
2013-12-07 23:27:00,41.9,41.2,30.38,NNE,14,6.0,14.0,97,0.00,,,0.23,meteohub,2013-12-08 04:27:00,
2013-12-07 23:32:00,41.5,40.8,30.38,East,84,0.0,9.0,97,0.00,,,0.23,meteohub,2013-12-08 04:32:00,
2013-12-07 23:37:00,41.5,40.5,30.38,ENE,69,3.0,9.0,96,0.00,,,0.23,meteohub,2013-12-08 04:37:00,
2013-12-07 23:42:00,41.5,40.5,30.38,SE,139,0.0,12.0,96,0.00,,,0.23,meteohub,2013-12-08 04:42:00,
2013-12-07 23:47:00,41.4,40.3,30.38,SW,229,0.0,12.0,96,0.00,,,0.23,meteohub,2013-12-08 04:47:00,
2013-12-07 23:52:00,41.4,40.3,30.38,East,88,3.0,12.0,96,0.00,,,0.23,meteohub,2013-12-08 04:52:00,
2013-12-07 23:57:00,41.4,40.3,30.37,ENE,72,4.0,12.0,96,0.00,,,0.23,meteohub,2013-12-08 04:57:00,